Meeting Creek, Kentucky
Current Conditions -  °F | °C
As of 5:28 AM on Thursday 29 Jan 2015 (Local Time) from KFTK Reporting Station
Light Rain Light Rain  
Wind Chill: 33°   Ceiling: 8000
Heat Index: 41°   Visibility: 10mi
Dew Point: 32°   Wind: 16mph
Humidity: 70%   Direction: 160°SSE
Pressure: 29.93"   Gusts: NA
Location:  37.6077°N, 86.1198°W
Report Text: KFTK 291028Z AUTO 16014KT 10SM -RA FEW050 OVC080 05/00 A2993 RMK AO2
Loading
Personal Weather Stations






























Interactive Weather Map New forecast layout! Learn more

10-Day Weather Forecast

Advertisements
Track Severe Weather on mobile